Homestead ARB Airport Homestead US
ICAO: KHST
IATA: HST
Category: Medium
Scheduled Services: No

Elevation: 5 ft
TransAlt. 18000 ft.

Airport Communications:
APP/DEP:123.8
ATIS:132.275
CLNC DEL:27.58
GCA:123.8
GND:121.75
93FS:138.025
PMSV METRO:31.865
COMD POST:25.21
PTD:37.22
TWR:133.45

KHST Zoom In..

If you have problems with the map follow the link
https://www.worldairports.se/pages/airport.php?
ICAO=KHST

Runways:

(A) RW 05 length 11200 ft width 300 ft
ILS 109.90 / hdg 52

(B) RW 23 length 11200 ft width 300 ft
---- / hdg 232

Location; KHST
Day. 29 / Time. 15.56 Zulu
* Altimeter: 29.95
* Temperature: 24° c. 75.2°f.
* Wind from: 210° Speed 06 kn.
Dewpoint: 17° c.
Visibility: 10 Statute Miles.
Clouds: Clear (automated report).

KHST 291556Z AUTO 21006KT 10SM CLR 24/17 A2995 RMK AO2 SLP145 T02390169 $


Wind From 210°
Speed 06 kn.

 
 
jpsmedia worldairports.se 2020   terms of use